aviador You're here:

PPIZ Decoded Metar

POINT LAY in AK, USA
Report Time2017-09-22 10:56:00
UTC Time2017-09-22 11:40:42
Flight Rules mvfr MVFR
Wind060° at 15 kt
W.Decomp.*RWY 05: 14.9 kt HW 1.3 kt LCW
W.Rank060° ranks 2
Current wind is above 060° avg. (12.6)
Visibility9999 m
Phenomena:N/A
Clouds:Overcast 019 Hf
Expected CloudBase > 800 ft AGL from Temp-Dew spread
Ceiling1,900 ft
Temp00°C (ISA -15)
Dew Point-2°C (87% RH)
AAT-7.6°C
QNH1021 hPa
Density Alt-2,001 ft
Elevation26 ft
Report Wrong Elevation
Raw Report
PPIZ 221056Z AUTO 06015KT 10SM OVC019 00/M02 A3016 RMK AO2 SNE21
SLP218 P0000 T00001017 FZRANO TSNO=

Extra information for PPIZ:More info

Metar Taf Metar & Taf Last 4 Metars F.Rules Stats Wind Profile Meteogram Temp Stats Airport Information Weather charts Add Link Nearby VenuesMetar ALERT Operation Metar Decoded Social comments

AIRNAV info for PPIZ